Time;durP1;ratioP1;P1;durP2;ratioP2;P2;SDS_P1;SDS_P2;PMS_P1;PMS_P2;Temp;Humidity;BMP_temperature;BMP_pressure;BME280_temperature;BME280_humidity;BME280_pressure;Samples;Min_cycle;Max_cycle;Signal;HPM_P1;HPM_P2
2023/02/12 00:01:13;;;;;;;15.65;10.63;;;;;;;5.24;75.33;99431.13;10440898;28;20466;-76
2023/02/12 00:06:34;;;;;;;17.20;9.98;;;;;;;5.18;75.25;99428.41;10468031;28;20045;-76
2023/02/12 00:11:55;;;;;;;16.45;9.45;;;;;;;5.21;76.03;99443.25;10454212;28;20071;-76
2023/02/12 00:17:16;;;;;;;16.20;9.77;;;;;;;5.27;75.76;99429.34;10467968;28;20040;-76
2023/02/12 00:22:37;;;;;;;15.45;9.48;;;;;;;5.26;75.96;99417.50;10468070;28;20098;-76
2023/02/12 00:27:58;;;;;;;14.25;8.65;;;;;;;5.27;75.29;99423.81;10461445;28;20489;-76
2023/02/12 00:33:19;;;;;;;17.10;9.00;;;;;;;5.13;75.49;99422.94;10475093;28;20394;-76
2023/02/12 00:38:40;;;;;;;13.90;8.95;;;;;;;5.05;75.64;99424.75;10475734;28;20060;-76
2023/02/12 00:44:02;;;;;;;14.32;8.63;;;;;;;5.10;75.84;99429.47;10461944;28;20052;-75
2023/02/12 00:49:24;;;;;;;12.25;8.07;;;;;;;5.12;76.12;99426.97;10503253;28;20071;-76
2023/02/12 00:54:45;;;;;;;14.43;7.43;;;;;;;5.20;76.13;99432.66;10460605;28;20059;-75
2023/02/12 01:00:07;;;;;;;10.85;7.30;;;;;;;5.19;76.06;99440.22;10447032;28;20045;-76
2023/02/12 01:05:29;;;;;;;9.77;6.43;;;;;;;5.25;76.41;99454.03;10472786;28;20052;-75
2023/02/12 01:10:55;;;;;;;11.93;6.80;;;;;;;5.32;76.11;99447.94;10460001;28;20500;-76
2023/02/12 01:16:21;;;;;;;10.00;6.18;;;;;;;5.39;76.18;99447.34;10474157;28;20470;-76
2023/02/12 01:21:43;;;;;;;9.02;5.90;;;;;;;5.47;76.29;99448.25;10487934;28;20041;-76
2023/02/12 01:27:04;;;;;;;7.50;5.03;;;;;;;5.54;76.27;99444.94;10487205;28;20394;-75
2023/02/12 01:32:26;;;;;;;8.93;5.50;;;;;;;5.54;76.72;99447.69;10459264;28;20060;-75
2023/02/12 01:37:47;;;;;;;9.18;5.53;;;;;;;5.55;76.22;99449.19;10485651;28;20114;-75
2023/02/12 01:43:11;;;;;;;9.80;5.93;;;;;;;5.55;76.79;99460.28;10459477;28;20044;-76
2023/02/12 01:48:35;;;;;;;7.35;4.60;;;;;;;5.54;76.33;99453.25;10471937;28;20048;-76
2023/02/12 01:53:58;;;;;;;7.97;5.03;;;;;;;5.56;76.58;99461.03;10499768;28;20059;-76
2023/02/12 01:59:19;;;;;;;7.15;4.65;;;;;;;5.57;76.37;99456.97;10485609;28;20041;-75
2023/02/12 02:04:44;;;;;;;7.55;4.25;;;;;;;5.59;76.48;99463.50;10472077;28;20052;-75
2023/02/12 02:10:06;;;;;;;9.30;4.35;;;;;;;5.59;77.02;99455.19;10485937;28;20107;-76
2023/02/12 02:15:27;;;;;;;6.80;4.20;;;;;;;5.62;77.06;99456.94;10498734;28;20044;-76
2023/02/12 02:21:19;;;;;;;5.18;3.60;;;;;;;5.65;76.96;99455.88;10498709;28;20049;-76
2023/02/12 02:27:10;;;;;;;8.30;4.15;;;;;;;5.64;77.37;99457.16;10498657;28;20040;-76
2023/02/12 02:32:41;;;;;;;8.57;3.95;;;;;;;5.64;77.55;99471.00;10484206;28;20048;-76
2023/02/12 02:38:06;;;;;;;6.25;3.85;;;;;;;5.68;77.38;99474.22;10483337;28;20040;-76
2023/02/12 02:43:34;;;;;;;10.10;4.75;;;;;;;5.68;77.38;99474.22;10442703;28;20418;-75
2023/02/12 02:49:01;;;;;;;6.22;4.00;;;;;;;5.67;77.10;99477.53;10415213;28;20045;-76
2023/02/12 02:54:25;;;;;;;7.30;4.15;;;;;;;5.68;77.55;99473.47;10456291;28;20090;-76
2023/02/12 02:59:48;;;;;;;8.15;4.18;;;;;;;5.69;77.29;99472.97;10469324;28;20041;-76
2023/02/12 03:05:16;;;;;;;6.88;4.25;;;;;;;5.69;77.57;99483.28;10465961;28;20387;-76
2023/02/12 03:10:46;;;;;;;5.50;3.72;;;;;;;5.67;77.74;99491.38;10456037;28;20478;-76
2023/02/12 03:16:22;;;;;;;6.32;4.03;;;;;;;5.72;77.72;99502.41;10452493;28;20371;-76
2023/02/12 03:21:56;;;;;;;6.30;3.65;;;;;;;5.75;77.93;99506.16;10464408;28;20043;-76
2023/02/12 03:27:20;;;;;;;6.13;3.95;;;;;;;5.73;77.41;99500.38;10478188;28;20394;-76
2023/02/12 03:33:16;;;;;;;8.20;4.45;;;;;;;5.77;77.66;99514.69;10464207;28;20044;-76
2023/02/12 03:38:46;;;;;;;8.88;3.65;;;;;;;5.76;78.27;99518.75;10489094;28;20056;-76
2023/02/12 03:44:07;;;;;;;6.50;4.15;;;;;;;5.74;77.99;99524.06;10478635;28;20419;-76
2023/02/12 03:49:41;;;;;;;6.57;3.83;;;;;;;5.72;78.12;99519.03;10493182;28;20041;-76
2023/02/12 03:55:03;;;;;;;6.88;4.20;;;;;;;5.72;78.21;99526.59;10478211;28;20036;-76
2023/02/12 04:00:23;;;;;;;7.30;3.75;;;;;;;5.73;78.64;99536.41;10465486;28;20040;-76
2023/02/12 04:05:44;;;;;;;5.60;3.63;;;;;;;5.73;78.51;99541.97;10485833;28;20101;-76
2023/02/12 04:11:27;;;;;;;6.18;3.72;;;;;;;5.76;78.51;99557.53;10490234;28;20044;-76
2023/02/12 04:17:04;;;;;;;7.50;3.90;;;;;;;5.77;78.87;99559.03;10503612;28;20083;-76
2023/02/12 04:22:37;;;;;;;7.40;4.03;;;;;;;5.73;78.78;99561.34;10489331;28;20102;-76
2023/02/12 04:28:17;;;;;;;6.13;3.80;;;;;;;5.74;79.05;99560.84;10476295;28;20064;-75
2023/02/12 04:33:46;;;;;;;7.35;4.40;;;;;;;5.72;79.93;99573.72;10502975;28;20398;-76
2023/02/12 04:39:10;;;;;;;8.15;4.07;;;;;;;5.70;79.55;99588.09;10475484;28;20049;-76
2023/02/12 04:44:32;;;;;;;;;;;;;;;5.69;80.01;99591.34;10475703;28;20052;-75
2023/02/12 04:49:53;;;;;;;7.43;4.65;;;;;;;5.69;79.68;99586.59;10502397;28;19924;-75
2023/02/12 04:55:14;;;;;;;6.75;4.45;;;;;;;5.70;79.59;99585.31;10474569;28;20045;-75
2023/02/12 05:00:35;;;;;;;8.20;4.72;;;;;;;5.72;79.32;99584.78;10474171;28;20442;-76
2023/02/12 05:06:03;;;;;;;7.13;4.72;;;;;;;5.74;80.15;99585.03;10473985;28;20068;-76
2023/02/12 05:11:24;;;;;;;8.38;5.15;;;;;;;5.75;79.84;99606.66;10472106;28;20052;-75
2023/02/12 05:16:44;;;;;;;7.88;4.57;;;;;;;5.72;79.84;99593.84;10473495;28;20498;-76
2023/02/12 05:22:05;;;;;;;12.55;5.40;;;;;;;5.74;79.89;99596.84;10487512;28;20055;-76
2023/02/12 05:27:26;;;;;;;7.75;4.78;;;;;;;5.72;80.22;99602.16;10487098;28;20040;-75
2023/02/12 05:32:47;;;;;;;9.73;4.82;;;;;;;5.73;80.03;99602.91;10486911;28;20041;-76
2023/02/12 05:38:08;;;;;;;9.10;4.78;;;;;;;5.74;79.99;99615.50;10472436;28;20044;-76
2023/02/12 05:43:28;;;;;;;7.55;4.85;;;;;;;5.74;79.91;99610.72;10486693;28;20040;-75
2023/02/12 05:48:50;;;;;;;9.20;4.57;;;;;;;5.74;80.28;99621.78;10472677;28;20463;-76
2023/02/12 05:54:10;;;;;;;7.00;4.75;;;;;;;5.71;80.34;99622.84;10483809;28;20474;-76
2023/02/12 05:59:32;;;;;;;9.88;5.82;;;;;;;5.70;80.67;99631.66;10483146;28;20040;-76
2023/02/12 06:04:53;;;;;;;9.85;5.82;;;;;;;5.68;80.48;99629.38;10468077;28;20612;-76
2023/02/12 06:10:14;;;;;;;10.55;5.45;;;;;;;5.66;80.51;99642.25;10481892;28;20497;-76
2023/02/12 06:15:36;;;;;;;9.60;5.75;;;;;;;5.69;80.97;99652.31;10489822;28;20033;-75
2023/02/12 06:20:56;;;;;;;8.65;5.53;;;;;;;5.72;80.83;99651.28;10454268;28;20045;-76
2023/02/12 06:26:18;;;;;;;9.05;5.75;;;;;;;5.73;80.86;99658.34;10467382;28;20068;-75
2023/02/12 06:31:39;;;;;;;10.35;6.18;;;;;;;5.87;80.79;99668.28;10480703;28;20036;-74
2023/02/12 06:37:00;;;;;;;8.80;5.22;;;;;;;6.09;80.59;99674.97;10479140;28;20058;-74
2023/02/12 06:42:21;;;;;;;11.75;7.22;;;;;;;6.33;80.49;99680.50;10466452;28;20466;-73
2023/02/12 06:47:41;;;;;;;11.60;7.53;;;;;;;6.63;80.33;99682.47;10466737;28;20737;-74
2023/02/12 06:53:02;;;;;;;14.88;8.15;;;;;;;7.04;79.56;99688.53;10466611;28;20032;-73
2023/02/12 06:58:23;;;;;;;11.15;7.30;;;;;;;9.63;77.88;99679.91;10466640;28;20118;-74
2023/02/12 07:03:54;;;;;;;9.60;6.50;;;;;;;12.49;73.93;99692.03;10480365;28;20045;-74
2023/02/12 07:09:15;;;;;;;9.48;7.22;;;;;;;14.18;69.26;99690.69;10448353;28;20063;-74
2023/02/12 07:14:36;;;;;;;9.07;6.43;;;;;;;13.39;65.76;99709.91;10467719;28;20047;-72
2023/02/12 07:19:57;;;;;;;12.57;5.88;;;;;;;11.20;67.71;99712.91;10464070;28;20438;-73
2023/02/12 07:25:18;;;;;;;8.90;6.05;;;;;;;9.98;69.31;99712.78;10466980;28;20051;-73
2023/02/12 07:30:39;;;;;;;14.15;6.03;;;;;;;9.22;71.32;99728.69;10480665;28;20386;-73
2023/02/12 07:36:03;;;;;;;10.98;6.30;;;;;;;8.67;72.12;99724.97;10472606;28;20504;-76
2023/02/12 07:41:29;;;;;;;9.15;5.82;;;;;;;8.23;72.64;99728.00;10461362;28;20044;-75
2023/02/12 07:46:50;;;;;;;10.80;6.30;;;;;;;7.88;73.11;99731.81;10460808;28;20044;-76
2023/02/12 07:52:11;;;;;;;12.27;7.15;;;;;;;7.65;73.49;99741.78;10474044;28;20032;-75
2023/02/12 07:57:34;;;;;;;12.07;7.63;;;;;;;7.54;74.18;99745.47;10460261;28;20049;-76
2023/02/12 08:02:55;;;;;;;10.82;6.13;;;;;;;7.47;74.60;99757.19;10473947;28;20106;-76
2023/02/12 08:08:16;;;;;;;10.93;6.32;;;;;;;7.47;74.24;99757.19;10460063;28;20083;-76
2023/02/12 08:13:37;;;;;;;10.70;6.57;;;;;;;7.47;74.22;99765.53;10473560;28;20087;-75
2023/02/12 08:18:58;;;;;;;9.45;6.15;;;;;;;7.51;74.31;99754.84;10459557;28;20501;-77
2023/02/12 08:24:37;;;;;;;9.32;5.28;;;;;;;7.55;74.06;99769.22;10464168;28;20765;-77
2023/02/12 08:29:57;;;;;;;10.30;5.80;;;;;;;7.57;74.21;99777.78;10487218;28;20184;-77
2023/02/12 08:35:18;;;;;;;11.60;5.78;;;;;;;7.67;74.00;99776.13;10445322;28;20481;-78
2023/02/12 08:40:39;;;;;;;12.25;5.85;;;;;;;7.72;73.83;99772.53;10472787;28;20482;-77
2023/02/12 08:46:10;;;;;;;11.20;5.40;;;;;;;7.79;73.83;99773.91;10486148;28;20474;-77
2023/02/12 08:51:33;;;;;;;13.88;6.18;;;;;;;7.90;74.06;99779.31;10474305;28;20067;-77
2023/02/12 08:56:58;;;;;;;10.57;6.15;;;;;;;7.92;73.76;99796.25;10488035;28;20051;-77
2023/02/12 09:02:19;;;;;;;11.70;7.10;;;;;;;7.94;73.69;99795.72;10459779;28;20053;-77
2023/02/12 09:07:40;;;;;;;12.43;7.47;;;;;;;8.01;73.68;99800.69;10473780;28;20138;-77
2023/02/12 09:13:01;;;;;;;12.52;7.63;;;;;;;7.97;73.47;99800.97;10459907;28;20068;-77
2023/02/12 09:18:22;;;;;;;13.55;8.10;;;;;;;7.96;73.06;99816.16;10459249;28;20114;-77
2023/02/12 09:23:43;;;;;;;17.05;8.30;;;;;;;7.96;72.54;99810.59;10445394;28;20040;-78
2023/02/12 09:29:04;;;;;;;13.23;8.10;;;;;;;8.00;72.30;99822.16;10472678;28;20390;-77
2023/02/12 09:34:24;;;;;;;16.15;8.02;;;;;;;8.09;72.24;99832.13;10458440;28;20070;-76
2023/02/12 09:39:45;;;;;;;15.05;8.10;;;;;;;8.20;72.17;99834.78;10472356;28;20102;-75
2023/02/12 09:45:16;;;;;;;15.68;8.57;;;;;;;8.32;71.72;99830.53;10476062;28;20044;-77
2023/02/12 09:50:42;;;;;;;14.55;8.18;;;;;;;8.46;71.21;99833.38;10462720;28;20470;-77
2023/02/12 09:56:08;;;;;;;14.15;7.90;;;;;;;8.46;70.66;99839.69;10429216;28;20098;-76
2023/02/12 10:01:29;;;;;;;13.75;8.90;;;;;;;8.40;70.17;99832.75;10430154;28;20049;-73
2023/02/12 10:06:58;;;;;;;18.45;9.70;;;;;;;8.40;70.61;99838.31;10416393;28;20041;-76
2023/02/12 10:12:25;;;;;;;14.40;9.00;;;;;;;8.45;70.46;99848.59;10443454;28;20056;-76
2023/02/12 10:18:03;;;;;;;13.82;8.90;;;;;;;8.46;70.50;99850.09;10443171;28;20041;-75
2023/02/12 10:23:30;;;;;;;15.90;9.40;;;;;;;8.56;70.27;99846.38;10415945;28;20037;-78
2023/02/12 10:28:51;;;;;;;14.77;9.68;;;;;;;8.65;70.05;99847.25;10429562;28;20041;-78
2023/02/12 10:34:18;;;;;;;14.73;9.35;;;;;;;8.79;70.13;99843.22;10456115;28;20120;-78
2023/02/12 10:39:47;;;;;;;15.43;8.77;;;;;;;8.92;70.02;99834.88;10430701;28;20057;-78
2023/02/12 10:45:17;;;;;;;12.60;7.80;;;;;;;9.12;68.64;99842.63;10441297;28;20531;-79
2023/02/12 10:51:03;;;;;;;13.52;7.80;;;;;;;9.26;68.88;99834.25;10450737;28;20394;-78
2023/02/12 10:56:24;;;;;;;12.55;7.18;;;;;;;9.51;68.64;99837.56;10484178;28;20090;-78
2023/02/12 11:01:45;;;;;;;12.45;5.93;;;;;;;9.68;68.10;99840.78;10476694;28;20072;-76
2023/02/12 11:07:07;;;;;;;13.75;6.30;;;;;;;9.84;68.00;99841.69;10455575;28;20090;-78
2023/02/12 11:12:36;;;;;;;10.00;4.85;;;;;;;10.00;66.76;99827.38;10453288;28;20067;-77
2023/02/12 11:18:02;;;;;;;11.88;4.22;;;;;;;10.54;66.70;99822.34;10428654;28;20041;-76
2023/02/12 11:23:28;;;;;;;10.48;4.43;;;;;;;11.05;64.73;99830.94;10428665;28;20052;-77
2023/02/12 11:28:53;;;;;;;10.50;4.35;;;;;;;11.26;64.73;99825.28;10461436;28;20040;-76
2023/02/12 11:34:15;;;;;;;10.52;4.10;;;;;;;11.17;64.02;99831.38;10500831;28;20041;-76
2023/02/12 11:39:38;;;;;;;8.38;2.88;;;;;;;11.10;63.58;99820.94;10460169;28;20060;-76
2023/02/12 11:44:59;;;;;;;8.18;3.38;;;;;;;10.97;62.88;99830.13;10474141;28;20045;-76
2023/02/12 11:50:30;;;;;;;9.63;3.30;;;;;;;10.81;60.67;99834.88;10441416;28;20486;-75
2023/02/12 11:55:56;;;;;;;8.63;3.20;;;;;;;10.71;62.66;99833.09;10432867;28;20048;-75
2023/02/12 12:01:28;;;;;;;11.10;3.85;;;;;;;10.60;62.47;99825.75;10427784;28;20081;-75
2023/02/12 12:06:57;;;;;;;8.63;3.45;;;;;;;10.53;61.87;99826.44;10436179;28;20048;-75
2023/02/12 12:12:21;;;;;;;9.45;2.80;;;;;;;10.63;62.43;99823.94;10436765;28;20045;-76
2023/02/12 12:23:48;;;;;;;10.20;3.60;;;;;;;11.02;60.47;99820.88;10440784;28;20394;-75
2023/02/12 12:29:17;;;;;;;10.30;3.38;;;;;;;10.91;60.53;99820.41;10435348;28;20048;-73
2023/02/12 12:34:38;;;;;;;12.57;3.15;;;;;;;10.91;59.90;99815.59;10433411;28;20041;-75
2023/02/12 12:40:11;;;;;;;11.80;3.40;;;;;;;10.92;59.53;99810.75;10419919;28;20044;-75
2023/02/12 12:45:53;;;;;;;11.23;3.97;;;;;;;10.71;59.15;99808.72;10446959;28;20390;-75
2023/02/12 12:51:25;;;;;;;9.65;3.13;;;;;;;10.60;59.81;99814.56;10460792;28;20063;-75
2023/02/12 12:56:55;;;;;;;8.85;3.10;;;;;;;10.51;59.21;99799.06;10448898;28;20044;-77
2023/02/12 13:02:44;;;;;;;9.65;2.45;;;;;;;10.18;57.85;99808.97;10446341;28;20049;-74
2023/02/12 13:08:22;;;;;;;6.18;1.92;;;;;;;10.12;58.49;99805.53;10432354;28;20041;-74
2023/02/12 13:13:45;;;;;;;10.10;2.67;;;;;;;10.15;59.28;99809.31;10447455;28;20061;-75
2023/02/12 13:19:14;;;;;;;10.90;3.15;;;;;;;10.20;59.17;99800.78;10418685;28;20049;-74
2023/02/12 13:24:47;;;;;;;7.68;3.22;;;;;;;10.10;58.74;99799.03;10431987;28;20045;-72
2023/02/12 13:30:16;;;;;;;9.13;3.00;;;;;;;9.98;58.58;99804.09;10430904;28;20044;-73
2023/02/12 13:35:41;;;;;;;10.43;3.22;;;;;;;9.84;58.92;99803.38;10444714;28;20068;-71
2023/02/12 13:41:06;;;;;;;11.75;2.60;;;;;;;9.68;58.89;99810.84;10417473;28;20064;-72
2023/02/12 13:46:43;;;;;;;6.90;2.40;;;;;;;9.62;58.20;99806.66;10431266;28;20041;-75
2023/02/12 13:52:19;;;;;;;10.50;2.33;;;;;;;9.62;58.71;99804.63;10426108;28;20037;-72
2023/02/12 13:57:40;;;;;;;8.32;2.70;;;;;;;9.54;58.61;99803.78;10430701;28;20048;-74
2023/02/12 14:03:07;;;;;;;10.93;3.20;;;;;;;9.57;58.61;99802.72;10430419;28;20482;-72
2023/02/12 14:08:53;;;;;;;8.88;2.67;;;;;;;9.65;58.79;99791.63;10431438;28;20048;-72
2023/02/12 14:14:34;;;;;;;8.35;2.58;;;;;;;9.63;58.22;99799.81;10457508;28;20037;-72
2023/02/12 14:20:04;;;;;;;7.20;2.60;;;;;;;9.60;58.54;99809.25;10438735;28;20397;-75
2023/02/12 14:25:34;;;;;;;12.80;2.50;;;;;;;9.66;58.47;99810.63;10499432;28;20405;-73
2023/02/12 14:31:17;;;;;;;13.10;3.25;;;;;;;9.70;58.09;99794.31;10499057;28;20061;-72
2023/02/12 14:36:42;;;;;;;7.87;2.67;;;;;;;9.73;58.34;99798.06;10470048;28;20044;-73
2023/02/12 14:42:29;;;;;;;9.68;3.28;;;;;;;9.70;57.84;99807.50;10456608;28;20049;-72
2023/02/12 14:47:50;;;;;;;9.73;3.28;;;;;;;9.55;57.80;99804.53;10483672;28;20079;-72
2023/02/12 14:53:30;;;;;;;11.32;3.50;;;;;;;9.42;57.56;99802.53;10456130;28;20041;-72
2023/02/12 14:58:52;;;;;;;11.48;3.58;;;;;;;9.32;57.95;99813.34;10470360;28;20041;-72
2023/02/12 15:04:22;;;;;;;11.60;4.10;;;;;;;9.25;58.41;99816.03;10471424;28;20135;-75
2023/02/12 15:09:47;;;;;;;13.63;5.43;;;;;;;9.12;58.79;99808.44;10469629;28;20494;-75
2023/02/12 15:15:26;;;;;;;;;;;;;;;9.00;59.10;99796.00;10455873;28;20505;-73
2023/02/12 15:20:55;;;;;;;10.82;4.75;;;;;;;8.89;59.24;99806.06;10482656;28;19920;-74
2023/02/12 15:26:19;;;;;;;10.73;5.20;;;;;;;8.76;59.18;99822.00;10482595;28;20049;-74
2023/02/12 15:31:40;;;;;;;10.15;5.20;;;;;;;8.67;59.50;99814.81;10482234;28;20382;-74
2023/02/12 15:37:02;;;;;;;11.65;4.72;;;;;;;8.60;59.81;99812.66;10468676;28;20040;-75
2023/02/12 15:42:36;;;;;;;10.65;4.57;;;;;;;8.51;60.43;99818.63;10481965;28;20402;-75
2023/02/12 15:48:16;;;;;;;12.07;4.60;;;;;;;8.45;60.45;99817.97;10469168;28;20033;-74
2023/02/12 15:53:37;;;;;;;10.88;4.90;;;;;;;8.38;60.53;99813.00;10481486;28;20041;-74
2023/02/12 15:59:00;;;;;;;9.32;4.68;;;;;;;8.28;60.61;99818.94;10462737;28;20098;-74
2023/02/12 16:04:20;;;;;;;10.88;4.88;;;;;;;8.23;60.79;99813.50;10487488;28;20433;-74
2023/02/12 16:09:41;;;;;;;9.40;4.80;;;;;;;8.15;61.19;99821.69;10486856;28;20442;-75
2023/02/12 16:15:02;;;;;;;13.98;5.32;;;;;;;8.09;61.33;99818.22;10472568;28;20037;-76
2023/02/12 16:20:25;;;;;;;12.48;5.13;;;;;;;8.04;61.60;99814.25;10486943;28;20040;-77
2023/02/12 16:25:52;;;;;;;13.37;5.70;;;;;;;7.99;62.18;99819.91;10487450;28;20544;-77
2023/02/12 16:31:14;;;;;;;11.18;5.65;;;;;;;7.95;61.71;99820.22;10473245;28;20044;-77
2023/02/12 16:36:36;;;;;;;10.75;5.28;;;;;;;7.91;62.18;99814.22;10486683;28;20041;-77
2023/02/12 16:41:57;;;;;;;11.10;5.30;;;;;;;7.92;62.17;99828.88;10486040;28;20048;-76
2023/02/12 16:47:19;;;;;;;11.18;5.80;;;;;;;7.90;62.43;99828.63;10500490;28;20045;-77
2023/02/12 16:52:40;;;;;;;11.75;6.15;;;;;;;7.87;62.82;99827.66;10500337;28;20037;-78
2023/02/12 16:58:01;;;;;;;12.75;6.25;;;;;;;7.86;62.60;99834.50;10472823;28;20044;-77
2023/02/12 17:03:23;;;;;;;14.15;6.68;;;;;;;7.80;62.77;99836.59;10432620;28;1142415;-76
2023/02/12 17:08:44;;;;;;;12.02;5.97;;;;;;;7.77;63.24;99831.34;10473758;28;20127;-76
2023/02/12 17:14:05;;;;;;;12.73;6.55;;;;;;;7.77;63.55;99836.91;10459058;28;20040;-75
2023/02/12 17:19:26;;;;;;;15.10;6.75;;;;;;;7.77;63.81;99836.91;10443624;28;20044;-75
2023/02/12 17:24:50;;;;;;;14.85;6.95;;;;;;;7.75;63.70;99845.78;10448470;28;20033;-74
2023/02/12 17:30:16;;;;;;;14.27;8.45;;;;;;;7.73;63.77;99842.78;10466595;28;20049;-74
2023/02/12 17:35:37;;;;;;;11.30;7.28;;;;;;;7.74;64.02;99831.13;10462054;28;20139;-75
2023/02/12 17:40:58;;;;;;;13.57;7.53;;;;;;;7.72;64.38;99836.47;10472420;28;20040;-75
2023/02/12 17:46:21;;;;;;;12.55;6.75;;;;;;;7.70;64.68;99846.56;10458855;28;20041;-76
2023/02/12 17:51:42;;;;;;;14.80;7.53;;;;;;;7.69;64.78;99845.81;10445005;28;20041;-77
2023/02/12 17:57:03;;;;;;;13.18;7.30;;;;;;;7.65;64.73;99850.94;10458143;28;20074;-78
2023/02/12 18:02:25;;;;;;;14.48;6.90;;;;;;;7.67;64.82;99847.63;10457767;28;20061;-75
2023/02/12 18:07:46;;;;;;;12.73;6.93;;;;;;;7.64;65.09;99846.66;10457314;28;20044;-74
2023/02/12 18:13:07;;;;;;;12.85;7.18;;;;;;;7.65;65.10;99864.09;10457033;28;20427;-75
2023/02/12 18:18:28;;;;;;;15.02;8.32;;;;;;;7.67;65.60;99867.84;10470179;28;20036;-75
2023/02/12 18:23:49;;;;;;;14.18;8.10;;;;;;;7.65;65.81;99864.84;10456810;28;20053;-75
2023/02/12 18:29:10;;;;;;;13.23;7.50;;;;;;;7.63;65.71;99867.41;10470668;28;20115;-76
2023/02/12 18:34:31;;;;;;;16.05;7.90;;;;;;;7.61;65.81;99872.72;10456315;28;20101;-76
2023/02/12 18:39:53;;;;;;;12.98;7.22;;;;;;;7.61;66.31;99875.50;10456239;28;20045;-76
2023/02/12 18:45:14;;;;;;;15.00;8.00;;;;;;;7.59;65.95;99866.94;10469903;28;20098;-76
2023/02/12 18:50:35;;;;;;;13.75;8.07;;;;;;;7.58;66.59;99870.22;10469607;28;20045;-76
2023/02/12 18:55:57;;;;;;;16.10;8.48;;;;;;;7.57;66.59;99861.16;10469481;28;20123;-75
2023/02/12 19:01:18;;;;;;;14.40;8.15;;;;;;;7.54;66.71;99859.41;10469195;28;20048;-74
2023/02/12 19:06:41;;;;;;;16.17;8.43;;;;;;;7.53;66.71;99869.03;10483295;28;20040;-74
2023/02/12 19:12:02;;;;;;;14.90;8.10;;;;;;;7.52;66.73;99861.19;10482868;28;20458;-74
2023/02/12 19:17:24;;;;;;;15.55;7.82;;;;;;;7.51;67.08;99870.81;10455178;28;20045;-74
2023/02/12 19:22:44;;;;;;;13.07;7.45;;;;;;;7.51;67.21;99868.03;10469131;28;20049;-74
2023/02/12 19:28:09;;;;;;;15.40;8.90;;;;;;;7.50;67.02;99875.63;10469044;28;20474;-74
2023/02/12 19:33:30;;;;;;;;;;;;;;;7.49;67.69;99874.13;10454464;28;20037;-74
2023/02/12 19:38:51;;;;;;;14.68;8.18;;;;;;;7.49;67.66;99874.13;10468632;28;19920;-73
2023/02/12 19:44:14;;;;;;;15.15;8.50;;;;;;;7.45;67.42;99870.91;10454684;28;20047;-75
2023/02/12 19:49:38;;;;;;;15.38;8.80;;;;;;;7.45;67.55;99868.13;10455468;28;20064;-74
2023/02/12 19:54:58;;;;;;;13.55;7.85;;;;;;;7.49;68.07;99874.13;10468171;28;20040;-76
2023/02/12 20:00:19;;;;;;;14.70;8.07;;;;;;;7.47;67.87;99874.66;10468431;28;20045;-74
2023/02/12 20:05:45;;;;;;;21.40;13.85;;;;;;;7.44;67.76;99867.38;10454152;28;20049;-73
2023/02/12 20:11:07;;;;;;;23.08;12.63;;;;;;;7.44;68.06;99863.84;10455190;28;20397;-74
2023/02/12 20:16:32;;;;;;;21.08;13.25;;;;;;;7.46;68.19;99877.97;10440082;28;20501;-74
2023/02/12 20:21:56;;;;;;;23.67;11.90;;;;;;;7.45;68.18;99868.13;10455461;28;20045;-73
2023/02/12 20:27:17;;;;;;;17.40;8.25;;;;;;;7.44;68.26;99872.19;10468016;28;20051;-73
2023/02/12 20:32:43;;;;;;;14.60;6.95;;;;;;;7.44;68.25;99883.28;10467919;28;20056;-73
2023/02/12 20:38:04;;;;;;;11.95;6.78;;;;;;;7.43;68.62;99879.75;10467857;28;20070;-74
2023/02/12 20:43:27;;;;;;;12.05;6.80;;;;;;;7.39;68.79;99886.88;10459052;28;20506;-75
2023/02/12 20:48:48;;;;;;;12.07;5.70;;;;;;;7.40;68.98;99891.16;10460505;28;20402;-74
2023/02/12 20:54:09;;;;;;;9.93;5.93;;;;;;;7.38;68.89;99896.47;10460555;28;20044;-74
2023/02/12 20:59:31;;;;;;;10.88;5.82;;;;;;;7.36;68.87;99891.44;10460358;28;20071;-75
2023/02/12 21:04:52;;;;;;;9.65;4.65;;;;;;;7.39;69.23;99886.88;10481181;28;20113;-74
2023/02/12 21:10:13;;;;;;;7.20;4.45;;;;;;;7.38;68.86;99882.59;10487776;28;20101;-74
2023/02/12 21:15:34;;;;;;;10.82;5.10;;;;;;;7.38;69.34;99880.56;10487056;28;20036;-75
2023/02/12 21:21:19;;;;;;;8.63;5.63;;;;;;;7.38;69.43;99883.34;10432043;28;20437;-77
2023/02/12 21:26:40;;;;;;;9.32;5.78;;;;;;;7.31;69.85;99877.59;10434796;28;20045;-78
2023/02/12 21:32:01;;;;;;;8.18;4.45;;;;;;;7.27;69.39;99868.81;10445356;28;20037;-79
2023/02/12 21:37:26;;;;;;;7.60;4.38;;;;;;;7.31;69.54;99874.81;10442385;28;20040;-78
2023/02/12 21:42:47;;;;;;;6.45;3.72;;;;;;;7.33;69.85;99878.59;10474660;28;20095;-79
2023/02/12 21:48:08;;;;;;;7.60;4.80;;;;;;;7.32;69.74;99881.88;10472910;28;20044;-78
2023/02/12 21:53:29;;;;;;;10.15;5.82;;;;;;;7.30;69.98;99873.31;10470953;28;20040;-77
2023/02/12 21:58:51;;;;;;;6.63;4.32;;;;;;;7.35;69.93;99872.53;10501175;28;20044;-78
2023/02/12 22:04:13;;;;;;;7.13;3.83;;;;;;;7.34;69.68;99884.91;10468833;28;20053;-78
2023/02/12 22:09:34;;;;;;;8.77;4.00;;;;;;;7.31;69.71;99886.69;10440405;28;20114;-77
2023/02/12 22:14:54;;;;;;;7.00;4.45;;;;;;;7.33;69.85;99883.38;10471353;28;20054;-78
2023/02/12 22:20:15;;;;;;;12.35;5.18;;;;;;;7.34;70.28;99890.47;10468080;28;20394;-77
2023/02/12 22:25:36;;;;;;;7.72;4.78;;;;;;;7.31;69.97;99889.47;10484635;28;20448;-77
2023/02/12 22:30:57;;;;;;;9.30;4.95;;;;;;;7.29;70.28;99894.81;10470638;28;20041;-77
2023/02/12 22:36:20;;;;;;;8.65;5.10;;;;;;;7.27;70.33;99889.03;10498013;28;20044;-77
2023/02/12 22:41:41;;;;;;;7.38;4.00;;;;;;;7.26;70.32;99898.63;10456857;28;20053;-77
2023/02/12 22:47:03;;;;;;;6.97;4.57;;;;;;;7.25;70.54;99896.38;10483814;28;20051;-77
2023/02/12 22:52:24;;;;;;;6.85;4.47;;;;;;;7.22;70.60;99906.47;10469290;28;20049;-77
2023/02/12 22:57:44;;;;;;;7.95;4.93;;;;;;;7.16;70.83;99891.91;10483371;28;20064;-77
2023/02/12 23:03:05;;;;;;;8.82;4.57;;;;;;;7.16;71.03;99900.25;10483185;28;20052;-77
2023/02/12 23:08:26;;;;;;;10.45;5.25;;;;;;;7.21;70.97;99904.22;10455637;28;20048;-77
2023/02/12 23:13:47;;;;;;;7.97;4.93;;;;;;;7.20;71.07;99908.28;10455532;28;20051;-77
2023/02/12 23:19:08;;;;;;;8.65;5.68;;;;;;;7.15;71.66;99891.16;10469636;28;20059;-77
2023/02/12 23:24:29;;;;;;;9.48;5.65;;;;;;;7.08;71.72;99891.72;10469507;28;20049;-77
2023/02/12 23:29:50;;;;;;;8.27;4.35;;;;;;;7.04;72.00;99894.03;10455426;28;20033;-77
2023/02/12 23:35:11;;;;;;;7.82;4.90;;;;;;;7.02;72.13;99879.91;10468737;28;20045;-77
2023/02/12 23:40:32;;;;;;;8.25;4.63;;;;;;;6.97;72.50;99880.72;10468584;28;20037;-78
2023/02/12 23:45:54;;;;;;;9.70;4.45;;;;;;;6.94;72.60;99875.44;10468722;28;20048;-77
2023/02/12 23:51:14;;;;;;;7.93;4.68;;;;;;;6.95;72.78;99871.41;10468429;28;20047;-77
2023/02/12 23:56:35;;;;;;;7.38;4.43;;;;;;;6.93;72.80;99871.91;10468439;28;20044;-77
